createdAt,value
2023-05-14T00:00:23.956Z,0.00
2023-05-14T00:00:54.547Z,0.00
2023-05-14T00:01:25.723Z,0.00
2023-05-14T00:01:56.167Z,0.00
2023-05-14T00:02:27.174Z,0.00
2023-05-14T00:02:57.864Z,0.00
2023-05-14T00:03:28.488Z,0.00
2023-05-14T00:03:59.063Z,0.00
2023-05-14T00:04:28.810Z,0.00
2023-05-14T00:05:00.261Z,0.00
2023-05-14T00:05:30.759Z,0.00
2023-05-14T00:06:01.674Z,0.00
2023-05-14T00:06:32.594Z,0.00
2023-05-14T00:07:02.119Z,0.00
2023-05-14T00:07:34.044Z,0.00
2023-05-14T00:08:05.008Z,0.00
2023-05-14T00:08:35.994Z,0.00
2023-05-14T00:09:06.921Z,0.00
2023-05-14T00:09:37.836Z,0.00
2023-05-14T00:10:08.764Z,0.00
2023-05-14T00:10:39.705Z,0.00
2023-05-14T00:11:10.626Z,0.00
2023-05-14T00:11:40.508Z,0.00
2023-05-14T00:12:12.479Z,0.00
2023-05-14T00:12:43.408Z,0.00
2023-05-14T00:13:14.379Z,0.00
2023-05-14T00:13:45.282Z,0.00
2023-05-14T00:14:16.214Z,0.00
2023-05-14T00:14:47.136Z,0.00
2023-05-14T00:15:18.060Z,0.00
2023-05-14T00:15:49.082Z,0.00
2023-05-14T00:16:20.041Z,0.00
2023-05-14T00:16:50.508Z,0.00
2023-05-14T00:17:21.467Z,0.00
2023-05-14T00:17:51.071Z,0.00
2023-05-14T00:18:21.624Z,0.00
2023-05-14T00:18:53.612Z,0.00
2023-05-14T00:19:24.079Z,0.00
2023-05-14T00:19:53.722Z,0.00
2023-05-14T00:20:25.865Z,0.00
2023-05-14T00:20:56.354Z,0.00
2023-05-14T00:21:27.315Z,0.00
2023-05-14T00:21:58.287Z,0.00
2023-05-14T00:22:28.776Z,0.00
2023-05-14T00:22:59.707Z,0.00
2023-05-14T00:23:30.632Z,0.00
2023-05-14T00:24:01.554Z,0.00
2023-05-14T00:24:32.501Z,0.00
2023-05-14T00:25:02.984Z,0.00
2023-05-14T00:25:33.930Z,0.00
2023-05-14T00:26:04.876Z,0.00
2023-05-14T00:26:35.807Z,0.00
2023-05-14T00:27:05.314Z,0.00
2023-05-14T00:27:37.222Z,0.00
2023-05-14T00:28:08.146Z,0.00
2023-05-14T00:28:39.081Z,0.00
2023-05-14T00:29:10.007Z,0.00
2023-05-14T00:29:39.529Z,0.00
2023-05-14T00:30:11.455Z,0.00
2023-05-14T00:30:41.028Z,0.00
2023-05-14T00:31:12.955Z,0.00
2023-05-14T00:31:43.916Z,0.00
2023-05-14T00:32:14.387Z,0.00
2023-05-14T00:32:45.340Z,0.00
2023-05-14T00:33:16.274Z,0.00
2023-05-14T00:33:47.209Z,0.00
2023-05-14T00:34:18.213Z,0.00
2023-05-14T00:34:49.135Z,0.00
2023-05-14T00:35:20.058Z,0.00
2023-05-14T00:35:50.992Z,0.00
2023-05-14T00:36:21.915Z,0.00
2023-05-14T00:36:52.845Z,0.00
2023-05-14T00:37:23.773Z,0.00
2023-05-14T00:37:54.739Z,0.00
2023-05-14T00:38:25.666Z,0.00
2023-05-14T00:38:56.665Z,0.00
2023-05-14T00:39:27.594Z,0.00
2023-05-14T00:39:58.505Z,0.00
2023-05-14T00:40:29.428Z,0.00
2023-05-14T00:41:00.355Z,0.00
2023-05-14T00:41:31.308Z,0.00
2023-05-14T00:42:01.788Z,0.00
2023-05-14T00:42:32.716Z,0.00
2023-05-14T00:43:03.566Z,0.00
2023-05-14T00:43:34.466Z,0.00
2023-05-14T00:44:05.391Z,0.00
2023-05-14T00:44:36.382Z,0.00
2023-05-14T00:45:07.295Z,0.00
2023-05-14T00:45:36.793Z,0.00
2023-05-14T00:46:11.674Z,0.00
2023-05-14T00:46:39.631Z,0.00
2023-05-14T00:47:10.545Z,0.00
2023-05-14T00:48:12.374Z,0.00
2023-05-14T00:48:43.330Z,0.00
2023-05-14T00:49:13.832Z,0.00
2023-05-14T00:49:44.796Z,0.00
2023-05-14T00:50:15.689Z,0.00
2023-05-14T00:50:46.618Z,0.00
2023-05-14T00:51:17.612Z,0.00
2023-05-14T00:51:48.614Z,0.00
2023-05-14T00:52:19.259Z,0.00
2023-05-14T00:52:50.178Z,0.00
2023-05-14T00:53:21.119Z,0.00
2023-05-14T00:53:51.605Z,0.00
2023-05-14T00:54:22.523Z,0.00
2023-05-14T00:54:53.752Z,0.00
2023-05-14T00:55:24.202Z,0.00
2023-05-14T00:55:55.124Z,0.00
2023-05-14T00:56:26.075Z,0.00
2023-05-14T00:56:56.999Z,0.00
2023-05-14T00:57:27.922Z,0.00
2023-05-14T00:57:58.862Z,0.00
2023-05-14T00:58:29.842Z,0.00
2023-05-14T00:59:00.825Z,0.00
2023-05-14T00:59:31.721Z,0.00
2023-05-14T01:00:02.666Z,0.00
2023-05-14T01:00:33.664Z,0.00
2023-05-14T01:01:04.144Z,0.00
2023-05-14T01:01:34.802Z,0.00
2023-05-14T01:02:05.337Z,0.00
2023-05-14T01:02:36.357Z,0.00
2023-05-14T01:03:09.230Z,0.00
2023-05-14T01:03:36.576Z,0.00
2023-05-14T01:04:08.147Z,0.00
2023-05-14T01:04:39.064Z,0.00
2023-05-14T01:05:10.003Z,0.00
2023-05-14T01:05:40.925Z,0.00
2023-05-14T01:06:11.839Z,0.00
2023-05-14T01:06:42.759Z,0.00
2023-05-14T01:07:13.722Z,0.00
2023-05-14T01:07:44.644Z,0.00
2023-05-14T01:08:15.551Z,0.00
2023-05-14T01:08:46.472Z,0.00
2023-05-14T01:09:17.384Z,0.00
2023-05-14T01:09:48.396Z,0.00
2023-05-14T01:10:19.312Z,0.00
2023-05-14T01:10:50.186Z,0.00
2023-05-14T01:11:21.114Z,0.00
2023-05-14T01:11:52.030Z,0.00
2023-05-14T01:12:22.972Z,0.00
2023-05-14T01:12:53.895Z,0.00
2023-05-14T01:13:24.815Z,0.00
2023-05-14T01:13:55.744Z,0.00
2023-05-14T01:14:26.673Z,0.00
2023-05-14T01:14:57.608Z,0.00
2023-05-14T01:15:28.555Z,0.00
2023-05-14T01:15:59.478Z,0.00
2023-05-14T01:16:30.488Z,0.00
2023-05-14T01:17:00.971Z,0.00
2023-05-14T01:17:31.922Z,0.00
2023-05-14T01:18:33.344Z,0.00
2023-05-14T01:19:04.291Z,0.00
2023-05-14T01:19:35.245Z,0.00
2023-05-14T01:20:06.151Z,0.00
2023-05-14T01:20:37.092Z,0.00
2023-05-14T01:21:08.006Z,0.00
2023-05-14T01:21:38.929Z,0.00
2023-05-14T01:22:09.845Z,0.00
2023-05-14T01:22:40.794Z,0.00
2023-05-14T01:23:11.713Z,0.00
2023-05-14T01:23:42.642Z,0.00
2023-05-14T01:24:13.563Z,0.00
2023-05-14T01:24:44.489Z,0.00
2023-05-14T01:25:15.410Z,0.00
2023-05-14T01:25:46.363Z,0.00
2023-05-14T01:26:17.335Z,0.00
2023-05-14T01:26:48.260Z,0.00
2023-05-14T01:27:19.195Z,0.00
2023-05-14T01:27:50.125Z,0.00
2023-05-14T01:28:21.071Z,0.00
2023-05-14T01:28:52.007Z,0.00
2023-05-14T01:29:22.955Z,0.00
2023-05-14T01:29:53.872Z,0.00
2023-05-14T01:30:25.167Z,0.00
2023-05-14T01:30:55.768Z,0.00
2023-05-14T01:31:26.689Z,0.00
2023-05-14T01:31:57.685Z,0.00
2023-05-14T01:32:28.158Z,0.00
2023-05-14T01:32:59.132Z,0.00
2023-05-14T01:33:29.607Z,0.00
2023-05-14T01:34:00.560Z,0.00
2023-05-14T01:34:31.564Z,0.00
2023-05-14T01:35:02.470Z,0.00
2023-05-14T01:36:04.302Z,0.00
2023-05-14T01:36:35.160Z,0.00
2023-05-14T01:37:06.070Z,0.00
2023-05-14T01:37:36.990Z,0.00
2023-05-14T01:38:07.917Z,0.00
2023-05-14T01:38:38.825Z,0.00
2023-05-14T01:39:09.362Z,0.00
2023-05-14T01:39:40.284Z,0.00
2023-05-14T01:40:11.222Z,0.00
2023-05-14T01:40:42.135Z,0.00
2023-05-14T01:41:13.067Z,0.00
2023-05-14T01:41:44.002Z,0.00
2023-05-14T01:42:14.921Z,0.00
2023-05-14T01:42:45.869Z,0.00
2023-05-14T01:43:16.769Z,0.00
2023-05-14T01:43:47.588Z,0.00
2023-05-14T01:44:18.502Z,0.00
2023-05-14T01:44:49.435Z,0.00
2023-05-14T01:45:20.379Z,0.00
2023-05-14T01:45:51.372Z,0.00
2023-05-14T01:46:21.872Z,0.00
2023-05-14T01:46:51.388Z,0.00
2023-05-14T01:47:23.335Z,0.00
2023-05-14T01:47:54.363Z,0.00
2023-05-14T01:48:55.738Z,0.00
2023-05-14T01:49:26.654Z,0.00
2023-05-14T01:49:57.620Z,0.00
2023-05-14T01:50:28.451Z,0.00
2023-05-14T01:50:59.380Z,0.00
2023-05-14T01:51:30.377Z,0.00
2023-05-14T01:52:01.279Z,0.00
2023-05-14T01:52:32.207Z,0.00
2023-05-14T01:53:03.141Z,0.00
2023-05-14T01:53:34.080Z,0.00
2023-05-14T01:54:05.024Z,0.00
2023-05-14T01:54:35.947Z,0.00
2023-05-14T01:55:06.890Z,0.00
2023-05-14T01:55:37.815Z,0.00
2023-05-14T01:56:08.781Z,0.00
2023-05-14T01:56:39.252Z,0.00
2023-05-14T01:57:10.170Z,0.00
2023-05-14T01:57:41.082Z,0.00
2023-05-14T01:58:10.974Z,0.00
2023-05-14T01:58:42.780Z,0.00
2023-05-14T01:59:13.705Z,0.00
2023-05-14T01:59:44.624Z,0.00
2023-05-14T02:00:15.559Z,0.00
2023-05-14T02:00:46.482Z,0.00
2023-05-14T02:01:17.470Z,0.00
2023-05-14T02:01:47.949Z,0.00
2023-05-14T02:02:18.404Z,0.00
2023-05-14T02:02:49.374Z,0.00
2023-05-14T02:03:20.283Z,0.00
2023-05-14T02:03:51.227Z,0.00
2023-05-14T02:04:22.189Z,0.00
2023-05-14T02:04:53.090Z,0.00
2023-05-14T02:05:24.022Z,0.00
2023-05-14T02:06:25.810Z,0.00
2023-05-14T02:06:56.777Z,0.00
2023-05-14T02:07:27.680Z,0.00
2023-05-14T02:07:58.622Z,0.00
2023-05-14T02:08:29.587Z,0.00
2023-05-14T02:09:00.536Z,0.00
2023-05-14T02:09:31.315Z,0.00
2023-05-14T02:10:02.167Z,0.00
2023-05-14T02:10:33.058Z,0.00
2023-05-14T02:11:02.654Z,0.00
2023-05-14T02:11:34.574Z,0.00
2023-05-14T02:12:05.511Z,0.00
2023-05-14T02:12:36.492Z,0.00
2023-05-14T02:13:07.423Z,0.00
2023-05-14T02:13:38.349Z,0.00
2023-05-14T02:14:09.288Z,0.00
2023-05-14T02:14:38.824Z,0.00
2023-05-14T02:15:10.784Z,0.00
2023-05-14T02:15:41.765Z,0.00
2023-05-14T02:16:12.778Z,0.00
2023-05-14T02:16:43.262Z,0.00
2023-05-14T02:17:14.166Z,0.00
2023-05-14T02:17:45.137Z,0.00
2023-05-14T02:18:16.085Z,0.00
2023-05-14T02:18:46.634Z,0.00
2023-05-14T02:19:17.882Z,0.00
2023-05-14T02:19:48.513Z,0.00
2023-05-14T02:20:19.453Z,0.00
2023-05-14T02:20:49.331Z,0.00
2023-05-14T02:21:21.254Z,0.00
2023-05-14T02:21:52.169Z,0.00
2023-05-14T02:22:23.124Z,0.00
2023-05-14T02:22:54.072Z,0.00
2023-05-14T02:23:34.119Z,0.00
2023-05-14T02:23:55.797Z,0.00
2023-05-14T02:24:25.764Z,0.00
2023-05-14T02:24:57.687Z,0.00
2023-05-14T02:25:28.607Z,0.00
2023-05-14T02:25:59.545Z,0.00
2023-05-14T02:26:30.460Z,0.00
2023-05-14T02:27:01.223Z,0.00
2023-05-14T02:27:31.666Z,0.00
2023-05-14T02:28:01.192Z,0.00
2023-05-14T02:28:33.105Z,0.00
2023-05-14T02:29:03.912Z,0.00
2023-05-14T02:29:34.860Z,0.00
2023-05-14T02:30:05.779Z,0.00
2023-05-14T02:30:36.699Z,0.00
2023-05-14T02:31:07.734Z,0.00
2023-05-14T02:32:09.124Z,0.00
2023-05-14T02:32:40.181Z,0.00
2023-05-14T02:33:10.841Z,0.00
2023-05-14T02:33:41.318Z,0.00
2023-05-14T02:34:12.293Z,0.00
2023-05-14T02:34:43.225Z,0.00
2023-05-14T02:35:14.155Z,0.00
2023-05-14T02:35:45.083Z,0.00
2023-05-14T02:36:16.000Z,0.00
2023-05-14T02:36:47.001Z,0.00
2023-05-14T02:37:17.919Z,0.00
2023-05-14T02:37:48.874Z,0.00
2023-05-14T02:38:19.807Z,0.00
2023-05-14T02:38:50.726Z,0.00
2023-05-14T02:39:22.262Z,0.00
2023-05-14T02:39:52.166Z,0.00
2023-05-14T02:40:23.267Z,0.00
2023-05-14T02:40:53.893Z,0.00
2023-05-14T02:41:24.830Z,0.00
2023-05-14T02:41:55.744Z,0.00
2023-05-14T02:42:26.707Z,0.00
2023-05-14T02:42:56.354Z,0.00
2023-05-14T02:43:27.850Z,0.00
2023-05-14T02:43:57.722Z,0.00
2023-05-14T02:44:29.645Z,0.00
2023-05-14T02:45:00.577Z,0.00
2023-05-14T02:45:31.485Z,0.00
2023-05-14T02:46:02.428Z,0.00
2023-05-14T02:46:33.469Z,0.00
2023-05-14T02:47:03.993Z,0.00
2023-05-14T02:47:36.194Z,0.00
2023-05-14T02:48:05.098Z,0.00
2023-05-14T02:48:36.047Z,0.00
2023-05-14T02:49:06.944Z,0.00
2023-05-14T02:49:37.412Z,0.00
2023-05-14T02:50:08.342Z,0.00
2023-05-14T02:50:39.293Z,0.00
2023-05-14T02:51:09.813Z,0.00
2023-05-14T02:51:40.742Z,0.00
2023-05-14T02:52:11.677Z,0.00
2023-05-14T02:52:42.603Z,0.00
2023-05-14T02:53:13.559Z,0.00
2023-05-14T02:53:44.452Z,0.00
2023-05-14T02:54:15.364Z,0.00
2023-05-14T02:54:46.297Z,0.00
2023-05-14T02:55:17.220Z,0.00
2023-05-14T02:55:48.192Z,0.00
2023-05-14T02:56:19.130Z,0.00
2023-05-14T02:56:50.053Z,0.00
2023-05-14T02:57:51.906Z,0.00
2023-05-14T02:58:25.052Z,0.00
2023-05-14T02:58:53.648Z,0.00
2023-05-14T02:59:24.408Z,0.00
2023-05-14T02:59:55.327Z,0.00
2023-05-14T03:00:26.185Z,0.00
2023-05-14T03:00:57.000Z,0.00
2023-05-14T03:01:27.994Z,0.00
2023-05-14T03:01:57.468Z,0.00
2023-05-14T03:02:29.329Z,0.00
2023-05-14T03:03:00.229Z,0.00
2023-05-14T03:03:31.056Z,0.00
2023-05-14T03:04:01.960Z,0.00
2023-05-14T03:04:32.942Z,0.00
2023-05-14T03:05:03.869Z,0.00
2023-05-14T03:05:34.796Z,0.00
2023-05-14T03:06:05.718Z,0.00
2023-05-14T03:06:36.655Z,0.00
2023-05-14T03:07:07.584Z,0.00
2023-05-14T03:07:38.526Z,0.00
2023-05-14T03:08:09.438Z,0.00
2023-05-14T03:08:40.381Z,0.00
2023-05-14T03:09:11.285Z,0.00
2023-05-14T03:09:42.181Z,0.00
2023-05-14T03:10:13.147Z,0.00
2023-05-14T03:10:44.052Z,0.00
2023-05-14T03:11:14.959Z,0.00
2023-05-14T03:11:45.863Z,0.00
2023-05-14T03:12:16.790Z,0.00
2023-05-14T03:12:47.728Z,0.00
2023-05-14T03:13:18.630Z,0.00
2023-05-14T03:14:20.505Z,0.00
2023-05-14T03:14:51.434Z,0.00
2023-05-14T03:15:22.352Z,0.00
2023-05-14T03:15:54.283Z,0.00
2023-05-14T03:16:23.216Z,0.00
2023-05-14T03:16:55.113Z,1.00
2023-05-14T03:17:26.094Z,0.00
2023-05-14T03:17:58.135Z,0.00
2023-05-14T03:18:27.607Z,0.00
2023-05-14T03:18:58.593Z,0.00
2023-05-14T03:19:29.020Z,0.00
2023-05-14T03:19:59.833Z,0.00
2023-05-14T03:20:30.704Z,1.00
2023-05-14T03:21:01.580Z,1.00
2023-05-14T03:21:32.454Z,1.00
2023-05-14T03:22:03.322Z,1.00
2023-05-14T03:22:34.224Z,1.00
2023-05-14T03:23:05.164Z,0.00
2023-05-14T03:23:36.104Z,0.00
2023-05-14T03:24:07.058Z,0.00
2023-05-14T03:24:37.973Z,0.00
2023-05-14T03:25:08.888Z,2.00
2023-05-14T03:25:39.790Z,2.00
2023-05-14T03:26:10.661Z,1.00
2023-05-14T03:26:41.598Z,0.00
2023-05-14T03:27:12.479Z,1.00
2023-05-14T03:27:43.398Z,1.00
2023-05-14T03:28:13.377Z,1.00
2023-05-14T03:28:45.300Z,1.00
2023-05-14T03:29:16.179Z,2.00
2023-05-14T03:29:47.180Z,0.00
2023-05-14T03:30:16.627Z,2.00
2023-05-14T03:30:48.549Z,2.00
2023-05-14T03:31:50.319Z,1.00
2023-05-14T03:32:21.195Z,1.00
2023-05-14T03:32:52.127Z,1.00
2023-05-14T03:33:23.003Z,1.00
2023-05-14T03:33:53.881Z,1.00
2023-05-14T03:34:24.629Z,7.00
2023-05-14T03:34:55.511Z,6.00
2023-05-14T03:35:26.406Z,4.00
2023-05-14T03:35:57.288Z,4.00
2023-05-14T03:36:28.190Z,5.00
2023-05-14T03:36:59.072Z,5.00
2023-05-14T03:37:28.591Z,5.00
2023-05-14T03:38:00.499Z,5.00
2023-05-14T03:38:31.370Z,5.00
2023-05-14T03:39:02.244Z,2.00
2023-05-14T03:39:33.135Z,3.00
2023-05-14T03:40:03.993Z,2.00
2023-05-14T03:40:34.897Z,2.00
2023-05-14T03:41:05.802Z,2.00
2023-05-14T03:41:36.660Z,3.00
2023-05-14T03:42:07.554Z,3.00
2023-05-14T03:42:38.411Z,6.00
2023-05-14T03:43:08.360Z,5.00
2023-05-14T03:43:40.253Z,4.00
2023-05-14T03:44:41.986Z,6.00
2023-05-14T03:45:12.892Z,6.00
2023-05-14T03:45:43.733Z,6.00
2023-05-14T03:46:14.632Z,6.00
2023-05-14T03:46:45.566Z,6.00
2023-05-14T03:47:16.436Z,6.00
2023-05-14T03:47:47.350Z,7.00
2023-05-14T03:48:18.325Z,7.00
2023-05-14T03:48:49.273Z,9.00
2023-05-14T03:49:20.181Z,7.00
2023-05-14T03:49:51.061Z,10.00
2023-05-14T03:50:22.160Z,11.00
2023-05-14T03:50:52.617Z,12.00
2023-05-14T03:51:23.507Z,12.00
2023-05-14T03:51:54.377Z,11.00
2023-05-14T03:52:25.258Z,15.00
2023-05-14T03:52:56.153Z,14.00
2023-05-14T03:53:27.014Z,10.00
2023-05-14T03:53:57.944Z,10.00
2023-05-14T03:54:28.811Z,13.00
2023-05-14T03:54:59.790Z,15.00
2023-05-14T03:55:30.636Z,17.00
2023-05-14T03:56:01.513Z,17.00
2023-05-14T03:56:32.401Z,17.00
2023-05-14T03:57:02.283Z,15.00
2023-05-14T03:57:34.170Z,15.00
2023-05-14T03:58:05.065Z,14.00
2023-05-14T03:58:35.926Z,14.00
2023-05-14T03:59:06.791Z,15.00
2023-05-14T03:59:37.715Z,17.00
2023-05-14T04:00:08.634Z,18.00
2023-05-14T04:00:39.530Z,15.00
2023-05-14T04:01:10.423Z,15.00
2023-05-14T04:02:12.373Z,23.00
2023-05-14T04:02:42.945Z,24.00
2023-05-14T04:03:13.396Z,28.00
2023-05-14T04:03:43.127Z,31.00
2023-05-14T04:04:14.721Z,31.00
2023-05-14T04:04:45.643Z,29.00
2023-05-14T04:05:16.540Z,26.00
2023-05-14T04:05:46.356Z,27.00
2023-05-14T04:06:18.199Z,33.00
2023-05-14T04:06:49.086Z,31.00
2023-05-14T04:07:20.009Z,32.00
2023-05-14T04:07:50.886Z,32.00
2023-05-14T04:08:21.778Z,32.00
2023-05-14T04:08:52.653Z,35.00
2023-05-14T04:09:23.506Z,37.00
2023-05-14T04:09:54.363Z,35.00
2023-05-14T04:10:25.415Z,35.00
2023-05-14T04:10:55.900Z,35.00
2023-05-14T04:11:26.781Z,36.00
2023-05-14T04:11:57.685Z,38.00
2023-05-14T04:12:28.613Z,38.00
2023-05-14T04:12:59.532Z,37.00
2023-05-14T04:13:30.375Z,39.00
2023-05-14T04:14:01.235Z,41.00
2023-05-14T04:15:01.633Z,45.00
2023-05-14T04:15:33.555Z,46.00
2023-05-14T04:16:04.556Z,46.00
2023-05-14T04:16:35.521Z,44.00
2023-05-14T04:17:06.394Z,44.00
2023-05-14T04:17:37.359Z,42.00
2023-05-14T04:18:08.311Z,47.00
2023-05-14T04:18:39.285Z,49.00
2023-05-14T04:19:10.230Z,47.00
2023-05-14T04:19:39.956Z,48.00
2023-05-14T04:20:11.841Z,49.00
2023-05-14T04:20:42.732Z,50.00
2023-05-14T04:21:13.603Z,53.00
2023-05-14T04:21:44.454Z,52.00
2023-05-14T04:22:15.327Z,57.00
2023-05-14T04:22:46.196Z,57.00
2023-05-14T04:23:17.101Z,60.00
2023-05-14T04:23:48.049Z,59.00
2023-05-14T04:24:18.938Z,58.00
2023-05-14T04:24:49.833Z,58.00
2023-05-14T04:25:20.724Z,59.00
2023-05-14T04:25:51.695Z,57.00
2023-05-14T04:26:22.542Z,64.00
2023-05-14T04:26:53.433Z,72.00
2023-05-14T04:27:24.290Z,72.00
2023-05-14T04:27:55.158Z,72.00
2023-05-14T04:28:26.066Z,74.00
2023-05-14T04:28:56.988Z,77.00
2023-05-14T04:29:27.882Z,74.00
2023-05-14T04:29:57.840Z,65.00
2023-05-14T04:30:29.730Z,62.00
2023-05-14T04:31:00.589Z,67.00
2023-05-14T04:31:30.640Z,64.00
2023-05-14T04:32:33.472Z,72.00
2023-05-14T04:33:03.961Z,79.00
2023-05-14T04:33:34.829Z,77.00
2023-05-14T04:34:05.683Z,70.00
2023-05-14T04:34:36.564Z,69.00
2023-05-14T04:35:07.480Z,65.00
2023-05-14T04:35:39.437Z,62.00
2023-05-14T04:36:09.202Z,60.00
2023-05-14T04:36:40.100Z,64.00
2023-05-14T04:37:11.011Z,77.00
2023-05-14T04:37:41.860Z,74.00
2023-05-14T04:38:12.762Z,75.00
2023-05-14T04:38:43.658Z,84.00
2023-05-14T04:39:14.523Z,86.00
2023-05-14T04:39:45.398Z,83.00
2023-05-14T04:40:16.273Z,78.00
2023-05-14T04:40:47.157Z,78.00
2023-05-14T04:41:18.110Z,80.00
2023-05-14T04:41:48.988Z,80.00
2023-05-14T04:42:19.854Z,83.00
2023-05-14T04:42:49.416Z,86.00
2023-05-14T04:43:21.257Z,82.00
2023-05-14T04:43:52.008Z,91.00
2023-05-14T04:44:22.912Z,86.00
2023-05-14T04:45:24.621Z,89.00
2023-05-14T04:45:55.518Z,94.00
2023-05-14T04:46:26.400Z,89.00
2023-05-14T04:46:57.273Z,86.00
2023-05-14T04:47:28.219Z,88.00
2023-05-14T04:47:59.122Z,85.00
2023-05-14T04:48:28.619Z,95.00
2023-05-14T04:49:00.505Z,102.00
2023-05-14T04:49:31.440Z,94.00
2023-05-14T04:50:03.328Z,102.00
2023-05-14T04:50:33.144Z,107.00
2023-05-14T04:51:06.859Z,110.00
2023-05-14T04:51:34.773Z,116.00
2023-05-14T04:52:05.636Z,109.00
2023-05-14T04:52:36.525Z,109.00
2023-05-14T04:53:07.466Z,101.00
2023-05-14T04:53:36.934Z,92.00
2023-05-14T04:54:08.860Z,102.00
2023-05-14T04:54:38.411Z,112.00
2023-05-14T04:55:10.281Z,109.00
2023-05-14T04:55:41.140Z,103.00
2023-05-14T04:56:11.998Z,97.00
2023-05-14T04:56:42.910Z,108.00
2023-05-14T04:57:13.742Z,100.00
2023-05-14T04:58:15.518Z,99.00
2023-05-14T04:58:46.394Z,112.00
2023-05-14T04:59:17.278Z,106.00
2023-05-14T04:59:48.134Z,95.00
2023-05-14T05:00:18.987Z,91.00
2023-05-14T05:00:48.989Z,102.00
2023-05-14T05:01:20.917Z,99.00
2023-05-14T05:01:51.791Z,94.00
2023-05-14T05:02:22.664Z,92.00
2023-05-14T05:02:53.547Z,87.00
2023-05-14T05:03:24.493Z,86.00
2023-05-14T05:03:55.036Z,75.00
2023-05-14T05:04:25.956Z,79.00
2023-05-14T05:04:56.880Z,82.00
2023-05-14T05:05:27.804Z,86.00
2023-05-14T05:05:58.756Z,107.00
2023-05-14T05:06:29.624Z,104.00
2023-05-14T05:07:00.559Z,95.00
2023-05-14T05:07:31.439Z,83.00
2023-05-14T05:08:02.295Z,83.00
2023-05-14T05:08:33.160Z,87.00
2023-05-14T05:09:04.184Z,97.00
2023-05-14T05:09:34.967Z,100.00
2023-05-14T05:10:05.854Z,99.00
2023-05-14T05:10:36.779Z,102.00
2023-05-14T05:11:07.693Z,90.00
2023-05-14T05:11:38.605Z,81.00
2023-05-14T05:12:09.494Z,85.00
2023-05-14T05:12:40.337Z,95.00
2023-05-14T05:13:11.257Z,87.00
2023-05-14T05:13:42.140Z,97.00
2023-05-14T05:14:13.036Z,103.00
2023-05-14T05:14:43.965Z,110.00
2023-05-14T05:15:46.023Z,100.00
2023-05-14T05:16:16.546Z,93.00
2023-05-14T05:16:47.414Z,105.00
2023-05-14T05:17:18.341Z,128.00
2023-05-14T05:17:49.276Z,119.00
2023-05-14T05:18:20.167Z,121.00
2023-05-14T05:18:51.050Z,117.00
2023-05-14T05:19:29.168Z,114.00
2023-05-14T05:19:52.680Z,116.00
2023-05-14T05:20:23.711Z,103.00
2023-05-14T05:20:54.161Z,98.00
2023-05-14T05:21:25.062Z,119.00
2023-05-14T05:21:55.954Z,120.00
2023-05-14T05:22:26.821Z,129.00
2023-05-14T05:22:57.695Z,144.00
2023-05-14T05:23:28.556Z,142.00
2023-05-14T05:23:59.430Z,143.00
2023-05-14T05:24:33.301Z,154.00
2023-05-14T05:25:01.070Z,142.00
2023-05-14T05:25:31.950Z,115.00
2023-05-14T05:26:02.898Z,125.00
2023-05-14T05:26:33.816Z,130.00
2023-05-14T05:27:04.693Z,131.00
2023-05-14T05:27:35.583Z,147.00
2023-05-14T05:28:06.484Z,166.00
2023-05-14T05:28:37.368Z,155.00
2023-05-14T05:29:07.345Z,159.00
2023-05-14T05:29:39.262Z,164.00
2023-05-14T05:30:10.151Z,178.00
2023-05-14T05:30:40.009Z,182.00
2023-05-14T05:31:11.939Z,194.00
2023-05-14T05:31:42.916Z,222.00
2023-05-14T05:32:13.809Z,217.00
2023-05-14T05:33:15.620Z,202.00
2023-05-14T05:33:46.497Z,180.00
2023-05-14T05:34:17.360Z,156.00
2023-05-14T05:34:47.332Z,184.00
2023-05-14T05:35:19.217Z,206.00
2023-05-14T05:35:50.177Z,205.00
2023-05-14T05:36:21.056Z,194.00
2023-05-14T05:36:51.942Z,184.00
2023-05-14T05:37:22.845Z,179.00
2023-05-14T05:37:53.784Z,184.00
2023-05-14T05:38:24.708Z,178.00
2023-05-14T05:38:55.911Z,176.00
2023-05-14T05:39:26.311Z,203.00
2023-05-14T05:39:57.187Z,194.00
2023-05-14T05:40:28.116Z,208.00
2023-05-14T05:40:58.981Z,228.00
2023-05-14T05:41:29.842Z,233.00
2023-05-14T05:42:00.733Z,218.00
2023-05-14T05:42:31.615Z,179.00
2023-05-14T05:43:02.433Z,240.00
2023-05-14T05:43:33.278Z,280.00
2023-05-14T05:44:04.156Z,237.00
2023-05-14T05:44:35.063Z,239.00
2023-05-14T05:45:05.943Z,229.00
2023-05-14T05:45:36.803Z,207.00
2023-05-14T05:46:07.723Z,245.00
2023-05-14T05:46:38.630Z,311.00
2023-05-14T05:47:09.490Z,291.00
2023-05-14T05:47:39.062Z,271.00
2023-05-14T05:48:10.901Z,263.00
2023-05-14T05:48:41.828Z,251.00
2023-05-14T05:49:12.719Z,245.00
2023-05-14T05:49:43.580Z,255.00
2023-05-14T05:50:14.539Z,331.00
2023-05-14T05:50:45.009Z,306.00
2023-05-14T05:51:15.879Z,285.00
2023-05-14T05:51:46.738Z,362.00
2023-05-14T05:52:17.596Z,387.00
2023-05-14T05:52:48.487Z,355.00
2023-05-14T05:53:19.412Z,417.00
2023-05-14T05:53:50.330Z,426.00
2023-05-14T05:54:20.326Z,377.00
2023-05-14T05:54:52.189Z,360.00
2023-05-14T05:55:23.095Z,338.00
2023-05-14T05:55:54.029Z,272.00
2023-05-14T05:56:24.891Z,299.00
2023-05-14T05:56:54.487Z,392.00
2023-05-14T05:57:26.409Z,430.00
2023-05-14T05:57:57.283Z,524.00
2023-05-14T05:58:28.244Z,451.00
2023-05-14T05:58:59.088Z,401.00
2023-05-14T05:59:29.943Z,337.00
2023-05-14T06:00:00.805Z,339.00
2023-05-14T06:00:31.659Z,359.00
2023-05-14T06:01:02.472Z,457.00
2023-05-14T06:01:33.330Z,478.00
2023-05-14T06:02:04.234Z,452.00
2023-05-14T06:02:35.158Z,372.00
2023-05-14T06:03:36.783Z,406.00
2023-05-14T06:04:09.356Z,355.00
2023-05-14T06:04:38.127Z,320.00
2023-05-14T06:05:09.067Z,309.00
2023-05-14T06:05:39.992Z,286.00
2023-05-14T06:06:10.863Z,269.00
2023-05-14T06:06:41.766Z,311.00
2023-05-14T06:07:12.699Z,327.00
2023-05-14T06:07:43.582Z,300.00
2023-05-14T06:08:14.432Z,269.00
2023-05-14T06:08:45.317Z,245.00
2023-05-14T06:09:16.239Z,236.00
2023-05-14T06:09:46.289Z,252.00
2023-05-14T06:10:17.760Z,267.00
2023-05-14T06:10:48.625Z,248.00
2023-05-14T06:11:19.506Z,219.00
2023-05-14T06:11:50.368Z,213.00
2023-05-14T06:12:21.244Z,206.00
2023-05-14T06:12:52.150Z,195.00
2023-05-14T06:13:23.013Z,190.00
2023-05-14T06:13:53.947Z,176.00
2023-05-14T06:14:23.426Z,165.00
2023-05-14T06:14:53.943Z,182.00
2023-05-14T06:15:25.846Z,212.00
2023-05-14T06:15:56.687Z,229.00
2023-05-14T06:16:27.605Z,254.00
2023-05-14T06:16:58.199Z,256.00
2023-05-14T06:17:31.354Z,264.00
2023-05-14T06:17:59.275Z,282.00
2023-05-14T06:19:00.248Z,282.00
2023-05-14T06:19:31.627Z,341.00
2023-05-14T06:20:02.515Z,309.00
2023-05-14T06:20:33.420Z,271.00
2023-05-14T06:21:04.303Z,228.00
2023-05-14T06:21:35.255Z,184.00
2023-05-14T06:22:06.120Z,202.00
2023-05-14T06:22:36.981Z,261.00
2023-05-14T06:23:07.879Z,276.00
2023-05-14T06:23:38.775Z,272.00
2023-05-14T06:24:09.606Z,268.00
2023-05-14T06:24:40.499Z,291.00
2023-05-14T06:25:11.350Z,284.00
2023-05-14T06:25:42.111Z,252.00
2023-05-14T06:26:12.972Z,226.00
2023-05-14T06:26:43.829Z,247.00
2023-05-14T06:27:14.730Z,284.00
2023-05-14T06:27:45.593Z,319.00
2023-05-14T06:28:16.474Z,346.00
2023-05-14T06:28:47.406Z,315.00
2023-05-14T06:29:18.287Z,272.00
2023-05-14T06:29:49.137Z,252.00
2023-05-14T06:30:20.009Z,248.00
2023-05-14T06:30:50.946Z,267.00
2023-05-14T06:31:21.735Z,311.00
2023-05-14T06:31:52.725Z,345.00
2023-05-14T06:32:23.716Z,381.00
2023-05-14T06:32:54.213Z,368.00
2023-05-14T06:33:25.880Z,352.00
2023-05-14T06:33:55.748Z,338.00
2023-05-14T06:34:26.651Z,330.00
2023-05-14T06:34:57.453Z,414.00
2023-05-14T06:35:28.316Z,476.00
2023-05-14T06:36:30.044Z,386.00
2023-05-14T06:37:00.965Z,384.00
2023-05-14T06:37:30.425Z,372.00
2023-05-14T06:38:02.300Z,302.00
2023-05-14T06:38:33.186Z,306.00
2023-05-14T06:39:03.129Z,309.00
2023-05-14T06:39:35.009Z,342.00
2023-05-14T06:40:05.887Z,334.00
2023-05-14T06:40:35.701Z,301.00
2023-05-14T06:41:07.610Z,294.00
2023-05-14T06:41:38.472Z,301.00
2023-05-14T06:42:09.346Z,297.00
2023-05-14T06:42:40.211Z,298.00
2023-05-14T06:43:11.075Z,288.00
2023-05-14T06:43:41.938Z,276.00
2023-05-14T06:44:12.797Z,272.00
2023-05-14T06:44:43.687Z,288.00
2023-05-14T06:45:13.593Z,280.00
2023-05-14T06:45:45.452Z,266.00
2023-05-14T06:46:16.313Z,262.00
2023-05-14T06:46:47.228Z,273.00
2023-05-14T06:47:17.983Z,283.00
2023-05-14T06:47:48.930Z,278.00
2023-05-14T06:48:19.918Z,268.00
2023-05-14T06:48:50.396Z,272.00
2023-05-14T06:49:21.301Z,255.00
2023-05-14T06:49:51.267Z,246.00
2023-05-14T06:50:23.423Z,270.00
2023-05-14T06:50:53.941Z,319.00
2023-05-14T06:51:24.806Z,345.00
2023-05-14T06:51:55.695Z,310.00